sensor_id;sensor_type;location;lat;lon;timestamp;pressure;altitude;pressure_sealevel;temperature;humidity
15272;BME280;7737;51.578;7.268;2023-05-11T00:01:30;100866.34;;;14.04;100.00
15272;BME280;7737;51.578;7.268;2023-05-11T00:03:56;100861.94;;;14.03;100.00
15272;BME280;7737;51.578;7.268;2023-05-11T00:06:23;100867.19;;;14.05;100.00
15272;BME280;7737;51.578;7.268;2023-05-11T00:08:51;100862.91;;;14.02;100.00
15272;BME280;7737;51.578;7.268;2023-05-11T00:11:17;100869.19;;;14.01;100.00
15272;BME280;7737;51.578;7.268;2023-05-11T00:13:44;100868.44;;;13.99;100.00
15272;BME280;7737;51.578;7.268;2023-05-11T00:16:11;100864.41;;;14.07;100.00
15272;BME280;7737;51.578;7.268;2023-05-11T00:18:37;100865.47;;;14.04;100.00
15272;BME280;7737;51.578;7.268;2023-05-11T00:21:04;100867.28;;;14.03;100.00
15272;BME280;7737;51.578;7.268;2023-05-11T00:23:30;100866.53;;;14.01;100.00
15272;BME280;7737;51.578;7.268;2023-05-11T00:25:58;100861.16;;;14.01;100.00
15272;BME280;7737;51.578;7.268;2023-05-11T00:28:25;100861.00;;;14.04;100.00
15272;BME280;7737;51.578;7.268;2023-05-11T00:30:54;100861.38;;;14.13;100.00
15272;BME280;7737;51.578;7.268;2023-05-11T00:33:21;100857.25;;;14.07;100.00
15272;BME280;7737;51.578;7.268;2023-05-11T00:35:48;100865.56;;;14.02;100.00
15272;BME280;7737;51.578;7.268;2023-05-11T00:38:14;100864.91;;;13.99;100.00
15272;BME280;7737;51.578;7.268;2023-05-11T00:40:41;100866.69;;;13.98;100.00
15272;BME280;7737;51.578;7.268;2023-05-11T00:43:09;100858.88;;;13.95;100.00
15272;BME280;7737;51.578;7.268;2023-05-11T00:45:35;100851.72;;;13.96;100.00
15272;BME280;7737;51.578;7.268;2023-05-11T00:48:02;100853.75;;;13.92;100.00
15272;BME280;7737;51.578;7.268;2023-05-11T00:50:29;100860.88;;;13.92;100.00
15272;BME280;7737;51.578;7.268;2023-05-11T00:52:56;100864.22;;;13.95;100.00
15272;BME280;7737;51.578;7.268;2023-05-11T00:55:23;100861.94;;;13.89;100.00
15272;BME280;7737;51.578;7.268;2023-05-11T00:57:49;100863.63;;;13.90;100.00
15272;BME280;7737;51.578;7.268;2023-05-11T01:00:17;100859.63;;;13.83;100.00
15272;BME280;7737;51.578;7.268;2023-05-11T01:02:44;100861.53;;;13.81;100.00
15272;BME280;7737;51.578;7.268;2023-05-11T01:05:11;100867.81;;;13.80;100.00
15272;BME280;7737;51.578;7.268;2023-05-11T01:07:42;100860.75;;;13.79;100.00
15272;BME280;7737;51.578;7.268;2023-05-11T01:10:16;100865.63;;;13.73;100.00
15272;BME280;7737;51.578;7.268;2023-05-11T01:12:53;100864.94;;;13.69;100.00
15272;BME280;7737;51.578;7.268;2023-05-11T01:15:29;100872.75;;;13.72;100.00
15272;BME280;7737;51.578;7.268;2023-05-11T01:18:08;100880.50;;;13.77;100.00
15272;BME280;7737;51.578;7.268;2023-05-11T01:20:37;100869.81;;;13.77;100.00
15272;BME280;7737;51.578;7.268;2023-05-11T01:23:41;100873.00;;;13.83;100.00
15272;BME280;7737;51.578;7.268;2023-05-11T01:26:30;100877.41;;;13.84;100.00
15272;BME280;7737;51.578;7.268;2023-05-11T01:29:12;100873.75;;;13.85;100.00
15272;BME280;7737;51.578;7.268;2023-05-11T01:31:49;100871.06;;;13.85;100.00
15272;BME280;7737;51.578;7.268;2023-05-11T01:34:21;100866.50;;;13.87;100.00
15272;BME280;7737;51.578;7.268;2023-05-11T01:36:52;100875.94;;;13.93;100.00
15272;BME280;7737;51.578;7.268;2023-05-11T01:39:23;100879.59;;;13.92;100.00
15272;BME280;7737;51.578;7.268;2023-05-11T01:41:53;100881.69;;;13.87;100.00
15272;BME280;7737;51.578;7.268;2023-05-11T01:44:24;100882.91;;;13.95;100.00
15272;BME280;7737;51.578;7.268;2023-05-11T01:46:55;100878.53;;;13.94;100.00
15272;BME280;7737;51.578;7.268;2023-05-11T01:49:23;100869.78;;;13.92;100.00
15272;BME280;7737;51.578;7.268;2023-05-11T01:51:50;100872.44;;;13.92;100.00
15272;BME280;7737;51.578;7.268;2023-05-11T01:54:18;100877.00;;;13.90;100.00
15272;BME280;7737;51.578;7.268;2023-05-11T01:56:47;100879.84;;;13.87;100.00
15272;BME280;7737;51.578;7.268;2023-05-11T01:59:16;100878.03;;;13.88;100.00
15272;BME280;7737;51.578;7.268;2023-05-11T02:01:44;100880.66;;;13.89;100.00
15272;BME280;7737;51.578;7.268;2023-05-11T02:04:13;100877.31;;;14.00;100.00
15272;BME280;7737;51.578;7.268;2023-05-11T02:06:42;100872.81;;;13.86;100.00
15272;BME280;7737;51.578;7.268;2023-05-11T02:09:10;100876.91;;;13.92;100.00
15272;BME280;7737;51.578;7.268;2023-05-11T02:11:39;100876.81;;;13.93;100.00
15272;BME280;7737;51.578;7.268;2023-05-11T02:14:08;100872.53;;;13.91;100.00
15272;BME280;7737;51.578;7.268;2023-05-11T02:16:36;100875.13;;;13.92;100.00
15272;BME280;7737;51.578;7.268;2023-05-11T02:19:04;100872.22;;;13.81;100.00
15272;BME280;7737;51.578;7.268;2023-05-11T02:21:33;100877.19;;;13.87;100.00
15272;BME280;7737;51.578;7.268;2023-05-11T02:24:01;100881.28;;;13.79;100.00
15272;BME280;7737;51.578;7.268;2023-05-11T02:26:30;100881.00;;;13.83;100.00
15272;BME280;7737;51.578;7.268;2023-05-11T02:28:56;100885.19;;;13.87;100.00
15272;BME280;7737;51.578;7.268;2023-05-11T02:31:26;100884.25;;;13.88;100.00
15272;BME280;7737;51.578;7.268;2023-05-11T02:33:56;100885.88;;;13.91;100.00
15272;BME280;7737;51.578;7.268;2023-05-11T02:36:27;100890.47;;;13.89;100.00
15272;BME280;7737;51.578;7.268;2023-05-11T02:39:01;100883.72;;;13.97;100.00
15272;BME280;7737;51.578;7.268;2023-05-11T02:41:30;100894.41;;;13.97;100.00
15272;BME280;7737;51.578;7.268;2023-05-11T02:44:00;100893.03;;;13.90;100.00
15272;BME280;7737;51.578;7.268;2023-05-11T02:46:32;100892.69;;;13.96;100.00
15272;BME280;7737;51.578;7.268;2023-05-11T02:48:59;100893.44;;;13.98;100.00
15272;BME280;7737;51.578;7.268;2023-05-11T02:51:32;100892.69;;;13.96;100.00
15272;BME280;7737;51.578;7.268;2023-05-11T02:54:01;100890.94;;;13.95;100.00
15272;BME280;7737;51.578;7.268;2023-05-11T02:56:28;100886.16;;;13.86;100.00
15272;BME280;7737;51.578;7.268;2023-05-11T02:58:55;100891.69;;;13.83;100.00
15272;BME280;7737;51.578;7.268;2023-05-11T03:01:22;100895.13;;;13.85;100.00
15272;BME280;7737;51.578;7.268;2023-05-11T03:03:49;100894.66;;;13.93;100.00
15272;BME280;7737;51.578;7.268;2023-05-11T03:06:15;100897.72;;;13.87;100.00
15272;BME280;7737;51.578;7.268;2023-05-11T03:08:42;100896.84;;;13.86;100.00
15272;BME280;7737;51.578;7.268;2023-05-11T03:11:10;100897.72;;;13.87;100.00
15272;BME280;7737;51.578;7.268;2023-05-11T03:13:39;100901.03;;;13.76;100.00
15272;BME280;7737;51.578;7.268;2023-05-11T03:16:06;100901.69;;;13.80;100.00
15272;BME280;7737;51.578;7.268;2023-05-11T03:18:35;100898.78;;;13.84;100.00
15272;BME280;7737;51.578;7.268;2023-05-11T03:21:02;100892.56;;;13.84;100.00
15272;BME280;7737;51.578;7.268;2023-05-11T03:23:30;100896.75;;;13.74;100.00
15272;BME280;7737;51.578;7.268;2023-05-11T03:25:58;100888.09;;;13.84;100.00
15272;BME280;7737;51.578;7.268;2023-05-11T03:28:26;100888.91;;;13.85;100.00
15272;BME280;7737;51.578;7.268;2023-05-11T03:30:55;100887.84;;;13.73;100.00
15272;BME280;7737;51.578;7.268;2023-05-11T03:33:21;100880.50;;;13.77;100.00
15272;BME280;7737;51.578;7.268;2023-05-11T03:35:49;100883.00;;;13.80;100.00
15272;BME280;7737;51.578;7.268;2023-05-11T03:38:16;100884.72;;;13.81;100.00
15272;BME280;7737;51.578;7.268;2023-05-11T03:40:46;100885.66;;;13.80;100.00
15272;BME280;7737;51.578;7.268;2023-05-11T03:43:15;100882.22;;;13.78;100.00
15272;BME280;7737;51.578;7.268;2023-05-11T03:45:45;100879.66;;;13.76;100.00
15272;BME280;7737;51.578;7.268;2023-05-11T03:48:13;100883.28;;;13.75;100.00
15272;BME280;7737;51.578;7.268;2023-05-11T03:50:41;100882.13;;;13.65;100.00
15272;BME280;7737;51.578;7.268;2023-05-11T03:53:09;100884.78;;;13.65;100.00
15272;BME280;7737;51.578;7.268;2023-05-11T03:55:36;100880.03;;;13.70;100.00
15272;BME280;7737;51.578;7.268;2023-05-11T03:58:05;100879.09;;;13.71;100.00
15272;BME280;7737;51.578;7.268;2023-05-11T04:00:32;100876.59;;;13.68;100.00
15272;BME280;7737;51.578;7.268;2023-05-11T04:03:03;100883.16;;;13.63;100.00
15272;BME280;7737;51.578;7.268;2023-05-11T04:05:30;100875.81;;;13.66;100.00
15272;BME280;7737;51.578;7.268;2023-05-11T04:07:57;100891.16;;;13.63;100.00
15272;BME280;7737;51.578;7.268;2023-05-11T04:10:24;100887.81;;;13.59;100.00
15272;BME280;7737;51.578;7.268;2023-05-11T04:12:50;100886.06;;;13.58;100.00
15272;BME280;7737;51.578;7.268;2023-05-11T04:15:17;100885.91;;;13.61;100.00
15272;BME280;7737;51.578;7.268;2023-05-11T04:17:43;100880.38;;;13.64;100.00
15272;BME280;7737;51.578;7.268;2023-05-11T04:20:11;100889.38;;;13.63;100.00
15272;BME280;7737;51.578;7.268;2023-05-11T04:22:38;100885.72;;;13.64;100.00
15272;BME280;7737;51.578;7.268;2023-05-11T04:25:05;100883.63;;;13.69;100.00
15272;BME280;7737;51.578;7.268;2023-05-11T04:27:31;100889.50;;;13.76;100.00
15272;BME280;7737;51.578;7.268;2023-05-11T04:29:58;100893.78;;;13.78;100.00
15272;BME280;7737;51.578;7.268;2023-05-11T04:32:25;100891.13;;;13.78;100.00
15272;BME280;7737;51.578;7.268;2023-05-11T04:34:52;100900.47;;;13.71;100.00
15272;BME280;7737;51.578;7.268;2023-05-11T04:37:20;100894.31;;;13.69;100.00
15272;BME280;7737;51.578;7.268;2023-05-11T04:39:46;100898.53;;;13.73;100.00
15272;BME280;7737;51.578;7.268;2023-05-11T04:42:13;100897.78;;;13.71;100.00
15272;BME280;7737;51.578;7.268;2023-05-11T04:44:40;100905.81;;;13.85;100.00
15272;BME280;7737;51.578;7.268;2023-05-11T04:47:06;100900.56;;;13.84;100.00
15272;BME280;7737;51.578;7.268;2023-05-11T04:49:33;100899.94;;;13.94;100.00
15272;BME280;7737;51.578;7.268;2023-05-11T04:52:00;100913.19;;;13.96;100.00
15272;BME280;7737;51.578;7.268;2023-05-11T04:54:27;100909.94;;;13.91;100.00
15272;BME280;7737;51.578;7.268;2023-05-11T04:56:55;100910.03;;;13.89;100.00
15272;BME280;7737;51.578;7.268;2023-05-11T04:59:22;100901.44;;;13.98;100.00
15272;BME280;7737;51.578;7.268;2023-05-11T05:01:48;100907.19;;;13.92;100.00
15272;BME280;7737;51.578;7.268;2023-05-11T05:04:15;100913.88;;;13.99;100.00
15272;BME280;7737;51.578;7.268;2023-05-11T05:06:41;100901.28;;;14.01;100.00
15272;BME280;7737;51.578;7.268;2023-05-11T05:09:08;100906.78;;;13.98;100.00
15272;BME280;7737;51.578;7.268;2023-05-11T05:11:36;100913.78;;;14.01;100.00
15272;BME280;7737;51.578;7.268;2023-05-11T05:14:03;100915.56;;;14.00;100.00
15272;BME280;7737;51.578;7.268;2023-05-11T05:16:30;100913.50;;;14.06;100.00
15272;BME280;7737;51.578;7.268;2023-05-11T05:18:56;100915.38;;;13.89;100.00
15272;BME280;7737;51.578;7.268;2023-05-11T05:21:23;100920.28;;;13.97;100.00
15272;BME280;7737;51.578;7.268;2023-05-11T05:23:50;100922.94;;;13.97;100.00
15272;BME280;7737;51.578;7.268;2023-05-11T05:26:16;100919.63;;;14.08;100.00
15272;BME280;7737;51.578;7.268;2023-05-11T05:28:44;100916.94;;;14.08;100.00
15272;BME280;7737;51.578;7.268;2023-05-11T05:31:10;100923.44;;;14.18;100.00
15272;BME280;7737;51.578;7.268;2023-05-11T05:33:37;100930.72;;;14.16;100.00
15272;BME280;7737;51.578;7.268;2023-05-11T05:36:04;100926.88;;;14.20;100.00
15272;BME280;7737;51.578;7.268;2023-05-11T05:38:30;100936.28;;;14.27;100.00
15272;BME280;7737;51.578;7.268;2023-05-11T05:40:58;100937.22;;;14.26;100.00
15272;BME280;7737;51.578;7.268;2023-05-11T05:43:25;100930.28;;;14.37;100.00
15272;BME280;7737;51.578;7.268;2023-05-11T05:45:52;100930.56;;;14.33;100.00
15272;BME280;7737;51.578;7.268;2023-05-11T05:48:19;100928.28;;;14.41;100.00
15272;BME280;7737;51.578;7.268;2023-05-11T05:50:46;100930.94;;;14.55;100.00
15272;BME280;7737;51.578;7.268;2023-05-11T05:53:12;100929.53;;;14.49;100.00
15272;BME280;7737;51.578;7.268;2023-05-11T05:55:39;100928.56;;;14.50;100.00
15272;BME280;7737;51.578;7.268;2023-05-11T05:58:05;100936.03;;;14.45;100.00
15272;BME280;7737;51.578;7.268;2023-05-11T06:00:32;100926.34;;;14.57;100.00
15272;BME280;7737;51.578;7.268;2023-05-11T06:03:01;100940.31;;;14.34;100.00
15272;BME280;7737;51.578;7.268;2023-05-11T06:05:27;100940.13;;;14.65;100.00
15272;BME280;7737;51.578;7.268;2023-05-11T06:07:54;100939.28;;;14.50;100.00
15272;BME280;7737;51.578;7.268;2023-05-11T06:10:20;100938.22;;;14.53;100.00
15272;BME280;7737;51.578;7.268;2023-05-11T06:12:47;100945.19;;;14.55;100.00
15272;BME280;7737;51.578;7.268;2023-05-11T06:15:14;100945.84;;;14.59;100.00
15272;BME280;7737;51.578;7.268;2023-05-11T06:17:40;100941.16;;;14.62;100.00
15272;BME280;7737;51.578;7.268;2023-05-11T06:20:09;100939.84;;;14.55;100.00
15272;BME280;7737;51.578;7.268;2023-05-11T06:22:35;100938.59;;;14.61;100.00
15272;BME280;7737;51.578;7.268;2023-05-11T06:25:02;100939.16;;;14.52;100.00
15272;BME280;7737;51.578;7.268;2023-05-11T06:27:29;100934.97;;;14.62;100.00
15272;BME280;7737;51.578;7.268;2023-05-11T06:29:56;100939.19;;;14.66;100.00
15272;BME280;7737;51.578;7.268;2023-05-11T06:32:22;100936.69;;;14.77;100.00
15272;BME280;7737;51.578;7.268;2023-05-11T06:34:49;100934.66;;;14.81;100.00
15272;BME280;7737;51.578;7.268;2023-05-11T06:37:17;100932.69;;;15.11;100.00
15272;BME280;7737;51.578;7.268;2023-05-11T06:39:45;100932.28;;;15.17;100.00
15272;BME280;7737;51.578;7.268;2023-05-11T06:42:12;100927.91;;;15.43;100.00
15272;BME280;7737;51.578;7.268;2023-05-11T06:44:38;100915.03;;;15.35;100.00
15272;BME280;7737;51.578;7.268;2023-05-11T06:47:06;100925.25;;;15.69;100.00
15272;BME280;7737;51.578;7.268;2023-05-11T06:49:33;100923.72;;;15.65;100.00
15272;BME280;7737;51.578;7.268;2023-05-11T06:51:59;100923.34;;;15.84;100.00
15272;BME280;7737;51.578;7.268;2023-05-11T06:54:27;100927.13;;;15.55;100.00
15272;BME280;7737;51.578;7.268;2023-05-11T06:56:54;100929.25;;;15.50;100.00
15272;BME280;7737;51.578;7.268;2023-05-11T06:59:21;100939.84;;;15.24;100.00
15272;BME280;7737;51.578;7.268;2023-05-11T07:01:47;100940.94;;;15.35;100.00
15272;BME280;7737;51.578;7.268;2023-05-11T07:04:14;100933.47;;;15.40;100.00
15272;BME280;7737;51.578;7.268;2023-05-11T07:06:40;100935.53;;;15.22;100.00
15272;BME280;7737;51.578;7.268;2023-05-11T07:09:07;100937.38;;;15.07;100.00
15272;BME280;7737;51.578;7.268;2023-05-11T07:11:35;100937.91;;;15.27;100.00
15272;BME280;7737;51.578;7.268;2023-05-11T07:14:02;100934.72;;;14.93;100.00
15272;BME280;7737;51.578;7.268;2023-05-11T07:16:28;100940.53;;;15.14;100.00
15272;BME280;7737;51.578;7.268;2023-05-11T07:18:55;100929.53;;;15.18;100.00
15272;BME280;7737;51.578;7.268;2023-05-11T07:21:22;100931.34;;;15.45;100.00
15272;BME280;7737;51.578;7.268;2023-05-11T07:23:48;100933.84;;;15.48;100.00
15272;BME280;7737;51.578;7.268;2023-05-11T07:26:15;100931.19;;;15.48;100.00
15272;BME280;7737;51.578;7.268;2023-05-11T07:28:43;100930.84;;;15.79;100.00
15272;BME280;7737;51.578;7.268;2023-05-11T07:31:10;100923.09;;;15.62;100.00
15272;BME280;7737;51.578;7.268;2023-05-11T07:33:37;100929.78;;;15.94;100.00
15272;BME280;7737;51.578;7.268;2023-05-11T07:36:04;100926.91;;;15.58;100.00
15272;BME280;7737;51.578;7.268;2023-05-11T07:38:31;100934.25;;;15.81;100.00
15272;BME280;7737;51.578;7.268;2023-05-11T07:40:57;100931.69;;;15.79;100.00
15272;BME280;7737;51.578;7.268;2023-05-11T07:43:24;100939.03;;;15.90;100.00
15272;BME280;7737;51.578;7.268;2023-05-11T07:45:52;100929.50;;;15.99;100.00
15272;BME280;7737;51.578;7.268;2023-05-11T07:48:19;100925.94;;;15.98;100.00
15272;BME280;7737;51.578;7.268;2023-05-11T07:50:45;100927.22;;;16.05;100.00
15272;BME280;7737;51.578;7.268;2023-05-11T07:53:13;100929.59;;;16.10;100.00
15272;BME280;7737;51.578;7.268;2023-05-11T07:55:40;100923.81;;;16.28;100.00
15272;BME280;7737;51.578;7.268;2023-05-11T07:58:07;100930.69;;;16.32;100.00
15272;BME280;7737;51.578;7.268;2023-05-11T08:00:33;100924.25;;;16.22;100.00
15272;BME280;7737;51.578;7.268;2023-05-11T08:03:01;100920.22;;;16.55;100.00
15272;BME280;7737;51.578;7.268;2023-05-11T08:05:29;100924.38;;;16.46;100.00
15272;BME280;7737;51.578;7.268;2023-05-11T08:07:57;100921.34;;;16.63;100.00
15272;BME280;7737;51.578;7.268;2023-05-11T08:10:23;100920.16;;;16.80;100.00
15272;BME280;7737;51.578;7.268;2023-05-11T08:12:50;100921.88;;;16.81;100.00
15272;BME280;7737;51.578;7.268;2023-05-11T08:15:17;100921.22;;;16.52;100.00
15272;BME280;7737;51.578;7.268;2023-05-11T08:17:43;100929.00;;;16.44;100.00
15272;BME280;7737;51.578;7.268;2023-05-11T08:20:12;100935.63;;;16.38;100.00
15272;BME280;7737;51.578;7.268;2023-05-11T08:22:39;100932.09;;;16.25;100.00
15272;BME280;7737;51.578;7.268;2023-05-11T08:25:06;100933.28;;;16.47;100.00
15272;BME280;7737;51.578;7.268;2023-05-11T08:27:33;100929.75;;;16.33;100.00
15272;BME280;7737;51.578;7.268;2023-05-11T08:30:00;100934.34;;;16.31;100.00
15272;BME280;7737;51.578;7.268;2023-05-11T08:32:26;100932.44;;;16.33;100.00
15272;BME280;7737;51.578;7.268;2023-05-11T08:34:53;100930.91;;;16.17;100.00
15272;BME280;7737;51.578;7.268;2023-05-11T08:37:21;100931.56;;;16.45;100.00
15272;BME280;7737;51.578;7.268;2023-05-11T08:39:48;100933.50;;;16.43;100.00
15272;BME280;7737;51.578;7.268;2023-05-11T08:42:15;100935.41;;;16.41;100.00
15272;BME280;7737;51.578;7.268;2023-05-11T08:44:43;100931.34;;;16.49;100.00
15272;BME280;7737;51.578;7.268;2023-05-11T08:47:10;100928.34;;;16.40;100.00
15272;BME280;7737;51.578;7.268;2023-05-11T08:49:37;100923.38;;;16.34;100.00
15272;BME280;7737;51.578;7.268;2023-05-11T08:52:04;100922.09;;;16.40;100.00
15272;BME280;7737;51.578;7.268;2023-05-11T08:54:33;100926.72;;;16.51;100.00
15272;BME280;7737;51.578;7.268;2023-05-11T08:57:00;100921.91;;;16.56;100.00
15272;BME280;7737;51.578;7.268;2023-05-11T08:59:27;100925.34;;;16.70;100.00
15272;BME280;7737;51.578;7.268;2023-05-11T09:01:54;100926.59;;;16.77;100.00
15272;BME280;7737;51.578;7.268;2023-05-11T09:04:22;100929.41;;;16.76;100.00
15272;BME280;7737;51.578;7.268;2023-05-11T09:06:50;100927.88;;;16.97;100.00
15272;BME280;7737;51.578;7.268;2023-05-11T09:09:17;100927.00;;;16.84;100.00
15272;BME280;7737;51.578;7.268;2023-05-11T09:11:45;100925.66;;;16.78;100.00
15272;BME280;7737;51.578;7.268;2023-05-11T09:14:12;100922.97;;;16.78;100.00
15272;BME280;7737;51.578;7.268;2023-05-11T09:16:39;100917.34;;;16.81;100.00
15272;BME280;7737;51.578;7.268;2023-05-11T09:19:06;100919.41;;;16.78;100.00
15272;BME280;7737;51.578;7.268;2023-05-11T09:21:39;100920.03;;;16.81;100.00
15272;BME280;7737;51.578;7.268;2023-05-11T09:24:06;100921.16;;;17.15;100.00
15272;BME280;7737;51.578;7.268;2023-05-11T09:26:32;100915.06;;;17.24;100.00
15272;BME280;7737;51.578;7.268;2023-05-11T09:29:00;100913.69;;;17.31;100.00
15272;BME280;7737;51.578;7.268;2023-05-11T09:31:35;100907.50;;;17.18;100.00
15272;BME280;7737;51.578;7.268;2023-05-11T09:34:09;100906.78;;;17.27;100.00
15272;BME280;7737;51.578;7.268;2023-05-11T09:36:36;100903.06;;;17.17;100.00
15272;BME280;7737;51.578;7.268;2023-05-11T09:39:03;100908.53;;;17.28;100.00
15272;BME280;7737;51.578;7.268;2023-05-11T09:41:30;100901.19;;;17.78;100.00
15272;BME280;7737;51.578;7.268;2023-05-11T09:44:08;100890.28;;;17.21;100.00
15272;BME280;7737;51.578;7.268;2023-05-11T09:46:36;100894.00;;;17.54;100.00
15272;BME280;7737;51.578;7.268;2023-05-11T09:49:03;100892.88;;;17.81;100.00
15272;BME280;7737;51.578;7.268;2023-05-11T09:51:32;100894.66;;;18.04;100.00
15272;BME280;7737;51.578;7.268;2023-05-11T09:53:59;100886.19;;;17.86;100.00
15272;BME280;7737;51.578;7.268;2023-05-11T09:56:45;100882.41;;;18.11;100.00
15272;BME280;7737;51.578;7.268;2023-05-11T09:59:15;100872.44;;;18.13;100.00
15272;BME280;7737;51.578;7.268;2023-05-11T10:01:42;100857.78;;;17.82;100.00
15272;BME280;7737;51.578;7.268;2023-05-11T10:04:09;100849.31;;;18.44;100.00
15272;BME280;7737;51.578;7.268;2023-05-11T10:06:43;100849.19;;;18.67;100.00
15272;BME280;7737;51.578;7.268;2023-05-11T10:09:11;100838.19;;;18.48;100.00
15272;BME280;7737;51.578;7.268;2023-05-11T10:11:41;100844.66;;;18.79;100.00
15272;BME280;7737;51.578;7.268;2023-05-11T10:14:09;100841.50;;;18.52;100.00
15272;BME280;7737;51.578;7.268;2023-05-11T10:16:39;100846.03;;;18.51;100.00
15272;BME280;7737;51.578;7.268;2023-05-11T10:19:06;100833.22;;;18.98;100.00
15272;BME280;7737;51.578;7.268;2023-05-11T10:21:33;100843.31;;;18.18;100.00
15272;BME280;7737;51.578;7.268;2023-05-11T10:24:01;100863.16;;;18.61;100.00
15272;BME280;7737;51.578;7.268;2023-05-11T10:26:29;100866.31;;;18.33;100.00
15272;BME280;7737;51.578;7.268;2023-05-11T10:28:57;100850.63;;;18.05;100.00
15272;BME280;7737;51.578;7.268;2023-05-11T10:31:24;100849.91;;;18.14;100.00
15272;BME280;7737;51.578;7.268;2023-05-11T10:33:53;100853.56;;;18.02;100.00
15272;BME280;7737;51.578;7.268;2023-05-11T10:36:22;100849.53;;;18.30;100.00
15272;BME280;7737;51.578;7.268;2023-05-11T10:38:49;100849.06;;;18.24;100.00
15272;BME280;7737;51.578;7.268;2023-05-11T10:41:25;100853.03;;;17.86;100.00
15272;BME280;7737;51.578;7.268;2023-05-11T10:44:19;100856.56;;;18.54;100.00
15272;BME280;7737;51.578;7.268;2023-05-11T10:47:07;100847.94;;;18.05;100.00
15272;BME280;7737;51.578;7.268;2023-05-11T10:49:50;100858.19;;;19.11;100.00
15272;BME280;7737;51.578;7.268;2023-05-11T10:52:48;100844.81;;;18.66;100.00
15272;BME280;7737;51.578;7.268;2023-05-11T10:55:26;100838.25;;;18.91;100.00
15272;BME280;7737;51.578;7.268;2023-05-11T10:58:05;100830.28;;;19.01;100.00
15272;BME280;7737;51.578;7.268;2023-05-11T11:01:08;100822.28;;;19.10;100.00
15272;BME280;7737;51.578;7.268;2023-05-11T11:03:54;100823.91;;;18.91;100.00
15272;BME280;7737;51.578;7.268;2023-05-11T11:06:23;100827.44;;;19.45;100.00
15272;BME280;7737;51.578;7.268;2023-05-11T11:08:57;100816.59;;;19.24;100.00
15272;BME280;7737;51.578;7.268;2023-05-11T11:11:32;100811.69;;;19.61;100.00
15272;BME280;7737;51.578;7.268;2023-05-11T11:14:00;100818.69;;;19.94;100.00
15272;BME280;7737;51.578;7.268;2023-05-11T11:16:30;100793.31;;;19.76;100.00
15272;BME280;7737;51.578;7.268;2023-05-11T11:19:34;100806.84;;;19.44;100.00
15272;BME280;7737;51.578;7.268;2023-05-11T11:22:02;100815.09;;;19.31;100.00
15272;BME280;7737;51.578;7.268;2023-05-11T11:24:45;100805.66;;;19.99;100.00
15272;BME280;7737;51.578;7.268;2023-05-11T11:27:13;100807.28;;;20.11;100.00
15272;BME280;7737;51.578;7.268;2023-05-11T11:29:40;100810.88;;;19.70;100.00
15272;BME280;7737;51.578;7.268;2023-05-11T11:32:25;100806.69;;;19.77;100.00
15272;BME280;7737;51.578;7.268;2023-05-11T11:34:52;100813.09;;;20.07;100.00
15272;BME280;7737;51.578;7.268;2023-05-11T11:37:20;100806.06;;;19.74;100.00
15272;BME280;7737;51.578;7.268;2023-05-11T11:39:54;100805.88;;;19.86;100.00
15272;BME280;7737;51.578;7.268;2023-05-11T11:42:32;100805.19;;;20.15;100.00
15272;BME280;7737;51.578;7.268;2023-05-11T11:45:25;100791.41;;;19.87;100.00
15272;BME280;7737;51.578;7.268;2023-05-11T11:48:13;100778.91;;;18.81;100.00
15272;BME280;7737;51.578;7.268;2023-05-11T11:50:41;100788.56;;;19.16;100.00
15272;BME280;7737;51.578;7.268;2023-05-11T11:56:40;100791.31;;;19.05;100.00
15272;BME280;7737;51.578;7.268;2023-05-11T11:59:09;100782.69;;;19.22;100.00
15272;BME280;7737;51.578;7.268;2023-05-11T12:01:38;100770.66;;;19.67;100.00
15272;BME280;7737;51.578;7.268;2023-05-11T12:04:38;100774.44;;;19.55;100.00
15272;BME280;7737;51.578;7.268;2023-05-11T12:07:08;100763.06;;;19.20;100.00
15272;BME280;7737;51.578;7.268;2023-05-11T12:09:39;100794.28;;;19.54;100.00
15272;BME280;7737;51.578;7.268;2023-05-11T12:12:08;100793.78;;;19.60;100.00
15272;BME280;7737;51.578;7.268;2023-05-11T12:14:37;100806.09;;;19.53;100.00
15272;BME280;7737;51.578;7.268;2023-05-11T12:17:05;100817.75;;;19.11;100.00
15272;BME280;7737;51.578;7.268;2023-05-11T12:19:38;100836.41;;;19.03;100.00
15272;BME280;7737;51.578;7.268;2023-05-11T12:22:05;100843.75;;;19.01;100.00
15272;BME280;7737;51.578;7.268;2023-05-11T12:24:32;100845.38;;;18.92;100.00
15272;BME280;7737;51.578;7.268;2023-05-11T12:27:01;100841.25;;;18.77;100.00
15272;BME280;7737;51.578;7.268;2023-05-11T12:29:30;100855.00;;;17.84;100.00
15272;BME280;7737;51.578;7.268;2023-05-11T12:31:58;100865.78;;;18.06;100.00
15272;BME280;7737;51.578;7.268;2023-05-11T12:34:24;100877.00;;;17.89;100.00
15272;BME280;7737;51.578;7.268;2023-05-11T12:36:52;100876.97;;;17.78;100.00
15272;BME280;7737;51.578;7.268;2023-05-11T12:39:21;100878.28;;;18.07;100.00
15272;BME280;7737;51.578;7.268;2023-05-11T12:41:49;100870.41;;;17.93;100.00
15272;BME280;7737;51.578;7.268;2023-05-11T12:44:16;100884.91;;;17.44;100.00
15272;BME280;7737;51.578;7.268;2023-05-11T12:46:45;100898.59;;;17.65;100.00
15272;BME280;7737;51.578;7.268;2023-05-11T12:49:15;100910.63;;;17.12;100.00
15272;BME280;7737;51.578;7.268;2023-05-11T12:51:46;100900.97;;;17.33;100.00
15272;BME280;7737;51.578;7.268;2023-05-11T12:54:24;100892.34;;;17.17;100.00
15272;BME280;7737;51.578;7.268;2023-05-11T12:56:51;100909.88;;;16.49;100.00
15272;BME280;7737;51.578;7.268;2023-05-11T12:59:29;100908.28;;;16.33;100.00
15272;BME280;7737;51.578;7.268;2023-05-11T13:02:12;100910.06;;;16.83;100.00
15272;BME280;7737;51.578;7.268;2023-05-11T13:04:41;100904.22;;;17.02;100.00